Red Fish, Louisiana
Current Conditions -  °F | °C
As of 7:35 AM on Thursday 23 Oct 2014 (Local Time) from KHZR Reporting Station
Clear Clear  
Wind Chill: 51°   Ceiling: Unl
Heat Index: 51°   Visibility: 10mi
Dew Point: 46°   Wind: 3mph
Humidity: 82%   Direction: 50°NE
Pressure: 30.11"   Gusts: NA
Location:  30.9317°N, 91.8606°W
Report Text: KHZR 231235Z AUTO 05003KT 10SM CLR 11/08 A3011 RMK AO2 T01060077
Loading
Personal Weather Stations






























Interactive Weather Map
Tropical Storm Tracking
New forecast layout! Learn more

10-Day Weather Forecast

Advertisements
Track Severe Weather on mobile